A- A+ FrançaisEnglishEspañol中国

Services sur Internet Soldes sur Internet Des idées de cadeaux Météo Météo aéro

La météo à : Autours de vous Tarbes-Lourdes-PyrénéesPau-PyrénéesPerpignan-RivesalterAjaccio-Napoléon-Bonaparte

manche à air

La météo aéronautique pour les pilotes, la préparation du vol avec les METAR (METeorological Aerodrome Report, message d'observation des conditions météorologiques pour l'aviation) et Les TAF (Terminal Aerodrome Forecast : message de prévision à court terme des conditions météorologiques pour l'aviation). Et les autres ressources comme les VAC (Visual Approch Chart) et les NOTAM (Notice To Airman) pour préprer les vols.

Aéroport Zarzaitine In Amenas (Algérie) / OACI DAUZ/ IATA IAM

L'altitude de l'aéroport Zarzaitine In Amenas est de 563 m = 1847 ft. Il est situé à proximité de Aménas (Algérie). La météo générale à 5 jours est disponible pour I-n-Amenas situé à 10 km.

METAR de l'aéroport Zarzaitine In Amenas - DAUZ

DAUZ 131400Z 27016KT CAVOK 19/M04 Q1017

Décodage du METAR de l'aéroport Zarzaitine In Amenas (DZ)

METAR émis par DAUZ le vendredi 13 décembre 2019 à 14:00 heure TU. Attention ce METAR est obsolète car il a été émis il y a 17 heure et 38 minutes.

La visibilité est de supérieure à 10 km = supérieure à 6.2 sm.

La température est de 19°C = 66 °F et le point rosée est de -4°C = 25 °F . Ce qui correspond à 21% d'humidité relative.

Le QNH est de 1017 hPa = 30.03 inHg

Vent de 16 kt = 30 km/h, orienté à 270°.

Pas de nuages.

TAF de l'aéroport Zarzaitine In Amenas - DAUZ

DAUZ 131100Z 1312/1412 27010KT CAVOK PROB30 TEMPO 1312/1315 27020KT 5000 DRSA

DAUZ 131100Z 1312/1412 27010KT visibilité supérieure à 10km, aucun nuage à une hauteur inférieure à 5000 ft ou sous l'altitude minimale de secteur et aucun cumulonimbus ou cumulus bourgeonnant, quelle que soit leur altitude probabilité de 30% d'avoir temporairement 1312/1315 27020KT 5000 DRSA

Aéroport à proximité de Zarzaitine In Amenas

Météo générale à 5 jours à I-n-Amenas (10 km)Aéroport Illizi Illirane (179 km)Aéroport Ghadames (234 km)Aéroport Bordj Omar Driss (276 km)Aéroport Ghat (327 km)Aéroport El Borma (408 km)Aéroport Djanet Tiska (418 km)

Vue aérienne de l'aéroport Zarzaitine In Amenas

NOTAM de l'aéroport Zarzaitine In Amenas

Les NOTAM sont fournis sans aucune garantie de leur actualité. Le pilote est le seul responsable de la vérification de sa validité avant de l'utiliser opérationnellement pour préparer un vol ou l'utiliser lors de sa navigation.

Pas de NOTAM

Sources des données